Home > Products > Valid Products > MTR

000
SAUS41 KCAR 240416
MTR40B
METAR K40B 240416Z AUTO 00000KT 01/00 A2955 RMK AO1 SLP023
     T00080004 54000





000
SAUS41 KCAR 240357
MTRGNR
METAR KGNR 240356Z AUTO 33016G25KT 02/00 A2947 RMK AO1 PK WND
35030/0346 SLP992 T00170000





000
SAUS41 KCAR 240316
MTR40B
METAR K40B 240316Z AUTO 00000KT 01/00 A2955 RMK AO1 SLP022
     T00070004 50000 60001





000
SAUS41 KCAR 240257
MTRGNR
METAR KGNR 240256Z AUTO 34013G29KT 02/M01 A2946 RMK AO1 PK WND
34029/0253 SLP990 T00171006 58001





000
SAUS41 KCAR 240216
MTR40B
METAR K40B 240216Z AUTO 00000KT 01/00 A2955 RMK AO1 SLP025
     T00080005 52004 P0001





000
SAUS41 KCAR 240158
MTRGNR
METAR KGNR 240156Z AUTO 34019G25KT 02/M01 A2947 RMK AO1 PK WND
32027/0058 SLP993 T00171006





000
SAUS41 KCAR 240116
MTR40B
METAR K40B 240116Z AUTO 00000KT 01/00 A2955 RMK AO1 SLP023
     T00070004 51008





000
SAUS41 KCAR 240057
MTRGNR
METAR KGNR 240056Z AUTO 33013G24KT 02/M01 A2948 RMK AO1 SLP994
T00171006





000
SAUS41 KCAR 240016
MTR40B
METAR K40B 240016Z AUTO VRB03KT 01/01 A2955 RMK AO1 SLP021
     T00080005 10019 20008 51011 P0001 60001





000
SAUS41 KCAR 232357
MTRGNR
METAR KGNR 232356Z AUTO 34014G20KT 02/M01 A2947 RMK AO1 PK WND
34026/2307 SLP990 T00171006 10056 20017 51005





000
SAUS41 KCAR 232316
MTR40B
METAR K40B 232316Z AUTO VRB03KT 01/01 A2954 RMK AO1 SLP019
     T00090005 52015 P0000





000
SAUS41 KCAR 232257
MTRGNR
METAR KGNR 232256Z AUTO 35013G21KT 02/M01 A2946 RMK AO1 PK WND
35026/2211 SLP988 T00221006





000
SAUS41 KCAR 232216
MTR40B
METAR K40B 232216Z AUTO VRB03KT 01/01 A2952 RMK AO1 SLP013
     T00110006 52015





000
SAUS41 KCAR 232157
MTRGNR
METAR KGNR 232156Z AUTO 35013G21KT 03/M01 A2946 RMK AO1 SLP986
T00331006





000
SAUS41 KCAR 232116
MTR40B
METAR K40B 232116Z AUTO VRB03KT 02/00 A2951 RMK AO1 SLP008
     T00170000 52013





000
SAUS41 KCAR 232057
MTRGNR
METAR KGNR 232056Z AUTO 32015G23KT 04/00 A2945 RMK AO1 SLP983
T00390000 53008





000
SAUS41 KCAR 232016
MTR40B
METAR K40B 232016Z AUTO VRB04G12KT 02/00 A2950 RMK AO1 SLP002
     T00171004 52013





000
SAUS41 KCAR 231957
MTRGNR
METAR KGNR 231956Z AUTO 34015G21KT 04/01 A2944 RMK AO1 SLP980
T00390006





000
SAUS41 KCAR 231916
MTR40B
METAR K40B 231916Z AUTO VRB04G14KT 02/01 A2948 RMK AO1 SLP997
     T00170007 52015





000
SAUS41 KCAR 231857
MTRGNR
METAR KGNR 231856Z AUTO 33012G19KT 05/01 A2943 RMK AO1 SLP975
T00500011





000
SAUS41 KCAR 231816
MTR40B
METAR K40B 231816Z AUTO 30006G14KT 230V360 02/01 A2947 RMK AO1
     SLP994 T00170008 10038 20016 53011 60000





000
SAUS41 KCAR 231757
MTRGNR
METAR KGNR 231756Z AUTO 34015G20KT 05/01 A2943 RMK AO1 SLP974
T00500011 10061 20044 51008





000
SAUS41 KCAR 231716
MTR40B
METAR K40B 231716Z AUTO VRB05G13KT 02/01 A2945 RMK AO1 SLP987
     T00190012 52010





000
SAUS41 KCAR 231658
MTRGNR
METAR KGNR 231656Z AUTO 34010G16KT 05/02 A2942 RMK AO1 SLP972
T00500017





000
SAUS41 KCAR 231616
MTR40B
METAR K40B 231616Z AUTO VRB04G13KT 02/01 A2944 RMK AO1 SLP981
     T00190014 52008





000
SAUS41 KCAR 231557
MTRGNR
METAR KGNR 231556Z AUTO 34008KT 05/02 A2941 RMK AO1 SLP968 T00500022





000
SAUS41 KCAR 231516
MTR40B
METAR K40B 231516Z AUTO VRB03G10KT 02/02 A2944 RMK AO1 SLP981
     T00210018 52014 60000





000
SAUS41 KCAR 231457
MTRGNR
METAR KGNR 231456Z AUTO 33008KT 05/03 A2940 RMK AO1 SLP966 T00500033
52006





000
SAUS41 KCAR 231416
MTR40B
METAR K40B 231416Z AUTO VRB03KT 02/02 A2943 RMK AO1 SLP975
     T00210020 52015





000
SAUS41 KCAR 231357
MTRGNR
METAR KGNR 231356Z AUTO 32006KT 05/03 A2940 RMK AO1 SLP964 T00500033





000
SAUS41 KCAR 231316
MTR40B
METAR K40B 231316Z AUTO VRB04KT 03/03 A2941 RMK AO1 SLP971
     T00260025 52016 P0000





000
SAUS41 KCAR 231257
MTRGNR
METAR KGNR 231256Z AUTO VRB04KT 06/04 A2939 RMK AO1 SLP961 T00560044





000
SAUS41 KCAR 231216
MTR40B
METAR K40B 231216Z AUTO 00000KT 04/04 A2939 RMK AO1 SLP964
     T00380037 10062 20034 52016 P0000 60007 70022





000
SAUS41 KCAR 231157
MTRGNR
METAR KGNR 231156Z AUTO 32004KT 06/05 A2938 RMK AO1 SLP958 60012
70022 T00610050 10061 20050 51005





000
SAUS41 KCAR 231116
MTR40B
METAR K40B 231116Z AUTO 00000KT 05/05 A2938 RMK AO1 SLP958
     T00500050 53008





000
SAUS41 KCAR 231057
MTRGNR
METAR KGNR 231056Z AUTO 00000KT 06/05 A2938 RMK AO1 SLP957 T00560050





000
SAUS41 KCAR 231016
MTR40B
METAR K40B 231016Z AUTO 00000KT 05/05 A2936 RMK AO1 SLP953
     T00550054 55001





000
SAUS41 KCAR 230957
MTRGNR
METAR KGNR 230956Z AUTO 00000KT 05/04 A2937 RMK AO1 SLP953 T00500044





000
SAUS41 KCAR 230916
MTR40B
METAR K40B 230916Z AUTO 00000KT 06/06 A2935 RMK AO1 SLP947
     T00570056 56011 P0001 60007





000
SAUS41 KCAR 230858
MTRGNR
METAR KGNR 230856Z AUTO VRB03KT 06/05 A2937 RMK AO1 SLP950 60012
T00560050 55005





000
SAUS41 KCAR 230816
MTR40B
METAR K40B 230816Z AUTO VRB02KT 06/06 A2935 RMK AO1 SLP948
     T00610060 56015 P0002





000
SAUS41 KCAR 230757
MTRGNR
METAR KGNR 230756Z AUTO 13003KT 06/05 A2937 RMK AO1 SLP950 P0008
T00560050





000
SAUS41 KCAR 230716
MTR40B
METAR K40B 230716Z AUTO VRB02KT 06/06 A2936 RMK AO1 SLP950
     T00570057 57016 P0004





000
SAUS41 KCAR 230657
MTRGNR
METAR KGNR 230656Z AUTO VRB03KT 06/05 A2938 RMK AO1 SLP955 P0004
T00560050





000
SAUS41 KCAR 230616
MTR40B
METAR K40B 230616Z AUTO VRB02KT 06/06 A2938 RMK AO1 SLP956
     T00550055 10070 20050 57017 P0004 60012





000
SAUS41 KCAR 230558
MTRGNR
METAR KGNR 230556Z AUTO 13004KT 06/05 A2938 RMK AO1 SLP956 P0005
60009 T00560050 10089 20056 56016





000
SAUS41 KCAR 230516
MTR40B
METAR K40B 230516Z AUTO VRB03KT 05/05 A2940 RMK AO1 SLP962
     T00550054 401081015 56019 P0001





000
SAUS41 KCAR 230457
MTRGNR
METAR KGNR 230456Z AUTO VRB04KT 06/06 A2940 RMK AO1 SLP960 P0003
T00610056 401330044





000
SAUS41 KCAR 230416
MTR40B
METAR K40B 230416Z AUTO VRB03KT 06/06 A2941 RMK AO1 SLP965
     T00580056 58021 P0002





000
SAUS41 KCAR 230357
MTRGNR
METAR KGNR 230356Z AUTO 13006KT 06/06 A2941 RMK AO1 SLP964 P0001
T00610056





000
SAUS41 KCAR 230316
MTR40B
METAR K40B 230316Z AUTO VRB04KT 07/06 A2943 RMK AO1 SLP973
     T00660062 58016 P0001 60006





000
SAUS41 KCAR 230257
MTRGNR
METAR KGNR 230256Z AUTO 13007G15KT 06/05 A2943 RMK AO1 SLP973
T00610050 56014





000
SAUS41 KCAR 230216
MTR40B
METAR K40B 230216Z AUTO VRB02KT 07/06 A2946 RMK AO1 SLP981
     T00670064 58008 P0000





000
SAUS41 KCAR 230157
MTRGNR
METAR KGNR 230156Z AUTO 13010G16KT 07/05 A2945 RMK AO1 SLP978
T00720050





000
SAUS41 KCAR 230116
MTR40B
METAR K40B 230116Z AUTO VRB03KT 07/07 A2947 RMK AO1 SLP987
     T00680065 58003 P0004





000
SAUS41 KCAR 230057
MTRGNR
METAR KGNR 230056Z AUTO 13007KT 08/04 A2946 RMK AO1 SLP983 T00780039





000
SAUS41 KCAR 230016
MTR40B
METAR K40B 230016Z AUTO VRB02KT 07/06 A2948 RMK AO1 SLP991
     T00690062 10108 20070 57002 P0001 60001





000
SAUS41 KCAR 222357
MTRGNR
METAR KGNR 222356Z AUTO 11008KT 09/03 A2948 RMK AO1 SLP989 T00890033
10133 20083 56002





000
SAUS41 KCAR 222316
MTR40B
METAR K40B 222316Z AUTO VRB04KT 09/06 A2948 RMK AO1 SLP991
     T00870062 56008





000
SAUS41 KCAR 222257
MTRGNR
METAR KGNR 222256Z AUTO 13006KT 10/02 A2948 RMK AO1 SLP988 T01000022





000
SAUS41 KCAR 222216
MTR40B
METAR K40B 222216Z AUTO VRB03KT 10/06 A2948 RMK AO1 SLP992
     T00990064 56019





000
SAUS41 KCAR 222158
MTRGNR
METAR KGNR 222156Z AUTO 13007KT 12/02 A2946 RMK AO1 SLP983 T01170022





000
SAUS41 KCAR 222116
MTR40B
METAR K40B 222116Z AUTO VRB04KT 10/07 A2949 RMK AO1 SLP995
     T01040066 58022





000
SAUS41 KCAR 222058
MTRGNR
METAR KGNR 222056Z AUTO 13007KT 13/06 A2948 RMK AO1 SLP988 T01280056
56028





000
SAUS41 KCAR 222016
MTR40B
METAR K40B 222016Z AUTO 08007G13KT 050V110 11/07 A2951 RMK AO1
     SLP003 T01050066 58025





000
SAUS41 KCAR 221957
MTRGNR
METAR KGNR 221956Z AUTO 13007KT 13/06 A2950 RMK AO1 SLP994 T01330061





000
SAUS41 KCAR 221916
MTR40B
METAR K40B 221916Z AUTO VRB06G13KT 10/07 A2954 RMK AO1 SLP015
     T01010066 57023





000
SAUS41 KCAR 221857
MTRGNR
METAR KGNR 221856Z AUTO 13007KT 12/06 A2953 RMK AO1 SLP005 T01220061





000
SAUS41 KCAR 221816
MTR40B
METAR K40B 221816Z AUTO 08007KT 050V110 10/07 A2955 RMK AO1 SLP022
     T01020071 10102 20021 57028 60002





000
SAUS41 KCAR 221757
MTRGNR
METAR KGNR 221756Z AUTO 14007KT 12/06 A2957 RMK AO1 SLP018 60001
T01220056 10122 20067 56017





000
SAUS41 KCAR 221716
MTR40B
METAR K40B 221716Z AUTO VRB04KT 09/07 A2958 RMK AO1 SLP033
     T00910070 57025





000
SAUS41 KCAR 221657
MTRGNR
METAR KGNR 221656Z AUTO 14007KT 12/06 A2958 RMK AO1 SLP023 T01220056





000
SAUS41 KCAR 221616
MTR40B
METAR K40B 221616Z AUTO VRB04KT 09/07 A2961 RMK AO1 SLP042
     T00930070 58021





000
SAUS41 KCAR 221557
MTRGNR
METAR KGNR 221556Z AUTO VRB05KT 12/07 A2960 RMK AO1 SLP027 T01220067





000
SAUS41 KCAR 221516
MTR40B
METAR K40B 221516Z AUTO 00000KT 07/05 A2964 RMK AO1 SLP054
     T00670051 57016 P0001 60002





000
SAUS41 KCAR 221457
MTRGNR
METAR KGNR 221456Z AUTO VRB04KT 11/06 A2962 RMK AO1 SLP036 60001
T01110061 57015





000
SAUS41 KCAR 221416
MTR40B
METAR K40B 221416Z AUTO VRB02KT 05/04 A2966 RMK AO1 SLP062
     T00510039 57014 P0000





000
SAUS41 KCAR 221357
MTRGNR
METAR KGNR 221356Z AUTO 12007KT 09/07 A2963 RMK AO1 SLP040 T00940067





000
SAUS41 KCAR 221316
MTR40B
METAR K40B 221316Z AUTO 00000KT 05/03 A2967 RMK AO1 SLP066
     T00450032 57014 P0000





000
SAUS41 KCAR 221258
MTRGNR
METAR KGNR 221256Z AUTO 00000KT 09/06 A2966 RMK AO1 SLP048 P0001
T00890061





000
SAUS41 KCAR 221216
MTR40B
METAR K40B 221216Z AUTO 00000KT 02/00 A2969 RMK AO1 SLP071
     T00210000 10024 21015 58005 60001 70002





000
SAUS41 KCAR 221157
MTRGNR
METAR KGNR 221156Z AUTO 12004KT 07/04 A2967 RMK AO1 SLP054 P0001
60004 70004 T00670044 10100 20044 58012





000
SAUS41 KCAR 221116
MTR40B
METAR K40B 221116Z AUTO 00000KT 02/00 A2970 RMK AO1 SLP075
     T00190000 58004





000
SAUS41 KCAR 221057
MTRGNR
METAR KGNR 221056Z AUTO 00000KT 06/03 A2968 RMK AO1 SLP058 T00610033





000
SAUS41 KCAR 221016
MTR40B
METAR K40B 221016Z AUTO 00000KT 01/M01 A2971 RMK AO1 SLP078
     T00071008 55006





000
SAUS41 KCAR 220957
MTRGNR
METAR KGNR 220956Z AUTO 05004KT 06/03 A2969 RMK AO1 SLP060 P0002
T00560033





000
SAUS41 KCAR 220916
MTR40B
METAR K40B 220916Z AUTO 00000KT 00/M01 A2970 RMK AO1 SLP072
     T00011012 57013 P0001 60001





000
SAUS41 KCAR 220857
MTRGNR
METAR KGNR 220856Z AUTO 15003KT 07/03 A2970 RMK AO1 SLP064 P0001
60001 T00670028 58002





000
SAUS41 KCAR 220816
MTR40B
METAR K40B 220816Z AUTO 00000KT 00/M02 A2971 RMK AO1 SLP074
     T10041016 58012 P0000





000
SAUS41 KCAR 220757
MTRGNR
METAR KGNR 220756Z AUTO 00000KT 08/02 A2970 RMK AO1 SLP064 T00780022





000
SAUS41 KCAR 220716
MTR40B
METAR K40B 220716Z AUTO 00000KT M01/M02 A2973 RMK AO1 SLP079
     T10141024 57007





000
SAUS41 KCAR 220657
MTRGNR
METAR KGNR 220656Z AUTO 03003KT 07/00 A2971 RMK AO1 SLP069 T00670000





000
SAUS41 KCAR 220616
MTR40B
METAR K40B 220616Z AUTO VRB02KT M01/M02 A2974 RMK AO1 SLP081
     T10121023 10084 21012 57006 60001





000
SAUS41 KCAR 220557
MTRGNR
METAR KGNR 220556Z AUTO 01003KT 08/00 A2971 RMK AO1 SLP067 T00830000
10117 20050 58021





000
SAUS41 KCAR 220516
MTR40B
METAR K40B 220516Z AUTO 00000KT M01/M02 A2975 RMK AO1 SLP081
     T10101022 401501011 58005





000
SAUS41 KCAR 220457
MTRGNR
METAR KGNR 220456Z AUTO 00000KT 07/M02 A2974 RMK AO1 SLP082
T00671017 401440006





000
SAUS41 KCAR 220416
MTR40B
METAR K40B 220416Z AUTO 00000KT 00/M02 A2975 RMK AO1 SLP082
     T10021019 58004 P0000





000
SAUS41 KCAR 220357
MTRGNR
METAR KGNR 220356Z AUTO 00000KT 08/M01 A2976 RMK AO1 SLP086
T00831011





000
SAUS41 KCAR 220316
MTR40B
METAR K40B 220316Z AUTO 00000KT 01/M01 A2976 RMK AO1 SLP083
     T00081013 58002 60000





000
SAUS41 KCAR 220257
MTRGNR
METAR KGNR 220256Z AUTO 13003KT 09/M01 A2977 RMK AO1 SLP092
T00891006 58009





000
SAUS41 KCAR 220216
MTR40B
METAR K40B 220216Z AUTO 00000KT 02/M01 A2976 RMK AO1 SLP083
     T00171013 57002 P0000





000
SAUS41 KCAR 220157
MTRGNR
METAR KGNR 220156Z AUTO 00000KT 10/01 A2979 RMK AO1 SLP096 T01000006





000
SAUS41 KCAR 220116
MTR40B
METAR K40B 220116Z AUTO 00000KT 05/01 A2977 RMK AO1 SLP083
     T00530006 54001





000
SAUS41 KCAR 220057
MTRGNR
METAR KGNR 220056Z AUTO VRB03KT 11/M01 A2980 RMK AO1 SLP100
T01111006





000
SAUS41 KCAR 220016
MTR40B
METAR K40B 220016Z AUTO 00000KT 07/00 A2977 RMK AO1 SLP084
     T00711004 10150 20066 54001





000
SAUS41 KCAR 212357
MTRGNR
METAR KGNR 212356Z AUTO 00000KT 09/00 A2980 RMK AO1 SLP102 T00940000
10144 20094 55004





000
SAUS41 KCAR 212316
MTR40B
METAR K40B 212316Z AUTO VRB03KT 11/M01 A2977 RMK AO1 SLP085
     T01141006 54001





000
SAUS41 KCAR 212257
MTRGNR
METAR KGNR 212256Z AUTO 19004KT 13/M01 A2979 RMK AO1 SLP098
T01281011





000
SAUS41 KCAR 212216
MTR40B
METAR K40B 212216Z AUTO VRB04G12KT 13/M01 A2977 RMK AO1 SLP086
     T01321013 56008





000
SAUS41 KCAR 212157
MTRGNR
METAR KGNR 212156Z AUTO 17006KT 14/M01 A2980 RMK AO1 SLP099
T01391006





000
SAUS41 KCAR 212116
MTR40B
METAR K40B 212116Z AUTO 21010G23KT 140V290 13/M02 A2977 RMK AO1
     SLP088 T01351020 56023





000
SAUS41 KCAR 212057
MTRGNR
METAR KGNR 212056Z AUTO VRB04KT 13/M01 A2981 RMK AO1 SLP106
T01281011 56025





000
SAUS41 KCAR 212016
MTR40B
METAR K40B 212016Z AUTO 20011G15KT 170V230 14/M02 A2977 RMK AO1
     SLP088 T01381021 58030





000
SAUS41 KCAR 211957
MTRGNR
METAR KGNR 211956Z AUTO VRB05KT 12/M02 A2983 RMK AO1 SLP110
T01171017





000
SAUS41 KCAR 211916
MTR40B
METAR K40B 211916Z AUTO 21009G19KT 190V260 14/M02 A2980 RMK AO1
     SLP098 T01411022 58028





000
SAUS41 KCAR 211857
MTRGNR
METAR KGNR 211856Z AUTO 10/M02 A2986 RMK AO1 SLP123 T01001017





000
SAUS41 KCAR 211816
MTR40B
METAR K40B 211816Z AUTO 20009G13KT 150V230 12/M02 A2984 RMK AO1
     SLP113 T01211024 10125 20042 57024





000
SAUS41 KCAR 211757
MTRGNR
METAR KGNR 211756Z AUTO VRB04KT 11/M02 A2989 RMK AO1 SLP133
T01061022 10106 20017 58030





000
SAUS41 KCAR 211716
MTR40B
METAR K40B 211716Z AUTO 21006G18KT 170V240 11/M03 A2986 RMK AO1
     SLP123 T01131029 57025





000
SAUS41 KCAR 211657
MTRGNR
METAR KGNR 211656Z AUTO 10005KT 06/M03 A2993 RMK AO1 SLP150
T00561028





000
SAUS41 KCAR 211616
MTR40B
METAR K40B 211616Z AUTO 20008G15KT 11/M04 A2988 RMK AO1 SLP131
     T01101038 57029





000
SAUS41 KCAR 211557
MTRGNR
METAR KGNR 211556Z AUTO 11005KT 04/M03 A2995 RMK AO1 SLP158
T00441028





000
SAUS41 KCAR 211516
MTR40B
METAR K40B 211516Z AUTO VRB06G16KT 11/M03 A2991 RMK AO1 SLP142
     T01071033 57027





000
SAUS41 KCAR 211457
MTRGNR
METAR KGNR 211456Z AUTO VRB04KT 04/M04 A2998 RMK AO1 SLP167
T00441039 58018





000
SAUS41 KCAR 211416
MTR40B
METAR K40B 211416Z AUTO 20008G13KT 180V240 09/M04 A2993 RMK AO1
     SLP152 T00951043 58025





000
SAUS41 KCAR 211357
MTRGNR
METAR KGNR 211356Z AUTO VRB03KT 03/M04 A3000 RMK AO1 SLP173
T00281044





000
SAUS41 KCAR 211316
MTR40B
METAR K40B 211316Z AUTO VRB04KT 06/M03 A2997 RMK AO1 SLP164
     T00571034 58017





000
SAUS41 KCAR 211257
MTRGNR
METAR KGNR 211256Z AUTO 12006KT 02/M05 A3002 RMK AO1 SLP180
T00221050





000
SAUS41 KCAR 211216
MTR40B
METAR K40B 211216Z AUTO VRB05KT 04/M03 A2999 RMK AO1 SLP173
     T00431035 10046 20023 56015 70001





000
SAUS41 KCAR 211157
MTRGNR
METAR KGNR 211156Z AUTO 12003KT 02/M06 A3004 RMK AO1 SLP185
T00221056 10022 20006 58012





000
SAUS41 KCAR 211116
MTR40B
METAR K40B 211116Z AUTO 00000KT 04/M04 A3001 RMK AO1 SLP179
     T00381039 56016





000
SAUS41 KCAR 211057
MTRGNR
METAR KGNR 211056Z AUTO 00000KT 01/M06 A3006 RMK AO1 SLP190
T00111061





000
SAUS41 KCAR 211016
MTR40B
METAR K40B 211016Z AUTO 00000KT 03/M03 A3002 RMK AO1 SLP182
     T00301034 57020





000
SAUS41 KCAR 210957
MTRGNR
METAR KGNR 210956Z AUTO 13005KT 01/M06 A3007 RMK AO1 SLP194
T00061061





000
SAUS41 KCAR 210916
MTR40B
METAR K40B 210916Z AUTO 00000KT 03/M04 A3004 RMK AO1 SLP188
     T00321044 57020





000
SAUS41 KCAR 210857
MTRGNR
METAR KGNR 210856Z AUTO 12005KT 01/M07 A3008 RMK AO1 SLP197
T00061067 56022





000
SAUS41 KCAR 210816
MTR40B
METAR K40B 210816Z AUTO 00000KT 04/M06 A3006 RMK AO1 SLP194
     T00371057 57021





000
SAUS41 KCAR 210757
MTRGNR
METAR KGNR 210756Z AUTO 12007KT 01/M06 A3009 RMK AO1 SLP203
T00111056





000
SAUS41 KCAR 210716
MTR40B
METAR K40B 210716Z AUTO 00000KT 04/M07 A3008 RMK AO1 SLP199
     T00381065 56026





000
SAUS41 KCAR 210657
MTRGNR
METAR KGNR 210656Z AUTO VRB05KT 01/M05 A3012 RMK AO1 SLP210
T00111050





000
SAUS41 KCAR 210616
MTR40B
METAR K40B 210616Z AUTO 00000KT 02/M04 A3010 RMK AO1 SLP206
     T00251042 10038 20005 57026 P0000 60001





000
SAUS41 KCAR 210557
MTRGNR
METAR KGNR 210556Z AUTO 13005KT 02/M04 A3014 RMK AO1 SLP221
T00171044 10078 20017 58025





000
SAUS41 KCAR 210516
MTR40B
METAR K40B 210516Z AUTO 00000KT 02/M04 A3013 RMK AO1 SLP213
     T00171038 401191054 57029





000
SAUS41 KCAR 210457
MTRGNR
METAR KGNR 210456Z AUTO 14005KT 02/M04 A3017 RMK AO1 SLP230
T00171039 401111033





    US Dept of Commerce
    National Oceanic and Atmospheric Administration
    National Weather Service
    1325 East West Highway
    Silver Spring, MD 20910
    Page Author: NWS Internet Services Team
Disclaimer
Information Quality
Credits
Glossary
Privacy Policy
Freedom of Information Act (FOIA)
About Us
Career Opportunities